sensor_id;sensor_type;location;lat;lon;timestamp;P1;durP1;ratioP1;P2;durP2;ratioP2
65691;SDS011;52411;52.716;6.696;2022-12-26T00:00:11;34.78;;;12.85;;
65691;SDS011;52411;52.716;6.696;2022-12-26T00:02:37;31.13;;;12.00;;
65691;SDS011;52411;52.716;6.696;2022-12-26T00:05:03;27.25;;;11.60;;
65691;SDS011;52411;52.716;6.696;2022-12-26T00:07:29;31.40;;;11.77;;
65691;SDS011;52411;52.716;6.696;2022-12-26T00:09:55;27.67;;;11.40;;
65691;SDS011;52411;52.716;6.696;2022-12-26T00:12:20;32.83;;;12.43;;
65691;SDS011;52411;52.716;6.696;2022-12-26T00:14:46;32.45;;;12.13;;
65691;SDS011;52411;52.716;6.696;2022-12-26T00:17:11;37.28;;;12.95;;
65691;SDS011;52411;52.716;6.696;2022-12-26T00:19:37;35.42;;;12.07;;
65691;SDS011;52411;52.716;6.696;2022-12-26T00:22:02;41.97;;;12.38;;
65691;SDS011;52411;52.716;6.696;2022-12-26T00:24:28;32.90;;;12.13;;
65691;SDS011;52411;52.716;6.696;2022-12-26T00:26:53;27.00;;;11.25;;
65691;SDS011;52411;52.716;6.696;2022-12-26T00:29:19;28.95;;;12.57;;
65691;SDS011;52411;52.716;6.696;2022-12-26T00:31:46;34.70;;;11.75;;
65691;SDS011;52411;52.716;6.696;2022-12-26T00:34:13;29.10;;;10.88;;
65691;SDS011;52411;52.716;6.696;2022-12-26T00:36:39;33.70;;;12.02;;
65691;SDS011;52411;52.716;6.696;2022-12-26T00:39:04;27.38;;;10.85;;
65691;SDS011;52411;52.716;6.696;2022-12-26T00:41:30;31.08;;;11.48;;
65691;SDS011;52411;52.716;6.696;2022-12-26T00:43:56;31.25;;;11.95;;
65691;SDS011;52411;52.716;6.696;2022-12-26T00:46:22;49.95;;;13.25;;
65691;SDS011;52411;52.716;6.696;2022-12-26T00:48:48;60.28;;;15.73;;
65691;SDS011;52411;52.716;6.696;2022-12-26T00:51:13;53.60;;;14.38;;
65691;SDS011;52411;52.716;6.696;2022-12-26T00:53:39;41.35;;;13.15;;
65691;SDS011;52411;52.716;6.696;2022-12-26T00:56:05;43.17;;;13.20;;
65691;SDS011;52411;52.716;6.696;2022-12-26T00:58:31;38.25;;;13.30;;
65691;SDS011;52411;52.716;6.696;2022-12-26T01:01:04;45.10;;;13.82;;
65691;SDS011;52411;52.716;6.696;2022-12-26T01:03:30;38.42;;;13.55;;
65691;SDS011;52411;52.716;6.696;2022-12-26T01:05:56;45.65;;;15.40;;
65691;SDS011;52411;52.716;6.696;2022-12-26T01:08:21;31.65;;;12.40;;
65691;SDS011;52411;52.716;6.696;2022-12-26T01:10:47;39.30;;;13.35;;
65691;SDS011;52411;52.716;6.696;2022-12-26T01:13:13;33.05;;;13.30;;
65691;SDS011;52411;52.716;6.696;2022-12-26T01:15:38;39.55;;;14.88;;
65691;SDS011;52411;52.716;6.696;2022-12-26T01:18:04;42.10;;;15.55;;
65691;SDS011;52411;52.716;6.696;2022-12-26T01:20:31;39.05;;;15.50;;
65691;SDS011;52411;52.716;6.696;2022-12-26T01:22:56;36.10;;;14.90;;
65691;SDS011;52411;52.716;6.696;2022-12-26T01:25:22;36.17;;;13.80;;
65691;SDS011;52411;52.716;6.696;2022-12-26T01:27:48;39.67;;;14.77;;
65691;SDS011;52411;52.716;6.696;2022-12-26T01:30:15;40.10;;;14.55;;
65691;SDS011;52411;52.716;6.696;2022-12-26T01:32:41;37.63;;;13.02;;
65691;SDS011;52411;52.716;6.696;2022-12-26T01:35:07;41.65;;;13.57;;
65691;SDS011;52411;52.716;6.696;2022-12-26T01:37:33;43.50;;;12.88;;
65691;SDS011;52411;52.716;6.696;2022-12-26T01:39:58;45.38;;;14.38;;
65691;SDS011;52411;52.716;6.696;2022-12-26T01:42:24;43.78;;;14.30;;
65691;SDS011;52411;52.716;6.696;2022-12-26T01:45:04;36.42;;;13.57;;
65691;SDS011;52411;52.716;6.696;2022-12-26T01:47:42;39.70;;;14.10;;
65691;SDS011;52411;52.716;6.696;2022-12-26T01:53:01;36.30;;;15.02;;
65691;SDS011;52411;52.716;6.696;2022-12-26T01:55:30;41.00;;;15.77;;
65691;SDS011;52411;52.716;6.696;2022-12-26T01:57:58;38.38;;;15.75;;
65691;SDS011;52411;52.716;6.696;2022-12-26T02:00:28;38.13;;;16.23;;
65691;SDS011;52411;52.716;6.696;2022-12-26T02:02:56;39.92;;;17.50;;
65691;SDS011;52411;52.716;6.696;2022-12-26T02:05:40;39.03;;;17.52;;
65691;SDS011;52411;52.716;6.696;2022-12-26T02:08:08;40.40;;;17.75;;
65691;SDS011;52411;52.716;6.696;2022-12-26T02:10:50;41.88;;;17.42;;
65691;SDS011;52411;52.716;6.696;2022-12-26T02:13:20;40.63;;;18.17;;
65691;SDS011;52411;52.716;6.696;2022-12-26T02:15:46;38.78;;;17.17;;
65691;SDS011;52411;52.716;6.696;2022-12-26T02:18:12;40.70;;;17.88;;
65691;SDS011;52411;52.716;6.696;2022-12-26T02:31:34;37.05;;;15.88;;
65691;SDS011;52411;52.716;6.696;2022-12-26T02:34:45;42.70;;;16.45;;
65691;SDS011;52411;52.716;6.696;2022-12-26T02:37:30;45.53;;;18.08;;
65691;SDS011;52411;52.716;6.696;2022-12-26T02:40:14;41.13;;;16.48;;
65691;SDS011;52411;52.716;6.696;2022-12-26T02:45:59;41.38;;;16.42;;
65691;SDS011;52411;52.716;6.696;2022-12-26T02:49:14;43.42;;;17.00;;
65691;SDS011;52411;52.716;6.696;2022-12-26T02:54:39;42.47;;;17.50;;
65691;SDS011;52411;52.716;6.696;2022-12-26T02:57:33;40.85;;;16.50;;
65691;SDS011;52411;52.716;6.696;2022-12-26T03:00:21;41.10;;;17.55;;
65691;SDS011;52411;52.716;6.696;2022-12-26T03:05:58;42.95;;;18.00;;
65691;SDS011;52411;52.716;6.696;2022-12-26T03:09:02;46.20;;;17.92;;
65691;SDS011;52411;52.716;6.696;2022-12-26T03:11:49;45.47;;;17.02;;
65691;SDS011;52411;52.716;6.696;2022-12-26T03:17:10;44.25;;;17.95;;
65691;SDS011;52411;52.716;6.696;2022-12-26T03:19:50;44.45;;;18.05;;
65691;SDS011;52411;52.716;6.696;2022-12-26T03:22:45;42.70;;;17.10;;
65691;SDS011;52411;52.716;6.696;2022-12-26T03:28:20;45.70;;;18.13;;
65691;SDS011;52411;52.716;6.696;2022-12-26T03:30:48;51.42;;;19.48;;
65691;SDS011;52411;52.716;6.696;2022-12-26T03:33:33;45.25;;;19.00;;
65691;SDS011;52411;52.716;6.696;2022-12-26T03:42:15;51.38;;;19.23;;
65691;SDS011;52411;52.716;6.696;2022-12-26T03:45:35;48.30;;;18.88;;
65691;SDS011;52411;52.716;6.696;2022-12-26T03:48:43;44.42;;;16.45;;
65691;SDS011;52411;52.716;6.696;2022-12-26T03:51:43;49.25;;;18.83;;
65691;SDS011;52411;52.716;6.696;2022-12-26T03:57:58;44.10;;;17.23;;
65691;SDS011;52411;52.716;6.696;2022-12-26T04:00:59;51.47;;;18.10;;
65691;SDS011;52411;52.716;6.696;2022-12-26T04:03:48;42.40;;;17.00;;
65691;SDS011;52411;52.716;6.696;2022-12-26T04:06:42;44.90;;;17.40;;
65691;SDS011;52411;52.716;6.696;2022-12-26T04:09:34;49.90;;;19.27;;
65691;SDS011;52411;52.716;6.696;2022-12-26T04:12:24;43.70;;;16.45;;
65691;SDS011;52411;52.716;6.696;2022-12-26T04:15:55;41.72;;;16.48;;
65691;SDS011;52411;52.716;6.696;2022-12-26T04:18:26;48.47;;;17.45;;
65691;SDS011;52411;52.716;6.696;2022-12-26T04:21:19;37.03;;;14.65;;
65691;SDS011;52411;52.716;6.696;2022-12-26T04:24:13;47.60;;;18.15;;
65691;SDS011;52411;52.716;6.696;2022-12-26T04:27:01;44.42;;;16.23;;
65691;SDS011;52411;52.716;6.696;2022-12-26T04:29:50;36.75;;;14.18;;
65691;SDS011;52411;52.716;6.696;2022-12-26T04:32:37;39.08;;;15.90;;
65691;SDS011;52411;52.716;6.696;2022-12-26T04:35:30;40.85;;;15.95;;
65691;SDS011;52411;52.716;6.696;2022-12-26T04:38:30;42.97;;;15.93;;
65691;SDS011;52411;52.716;6.696;2022-12-26T04:44:06;36.95;;;14.68;;
65691;SDS011;52411;52.716;6.696;2022-12-26T04:46:40;40.88;;;15.88;;
65691;SDS011;52411;52.716;6.696;2022-12-26T04:51:55;43.42;;;15.77;;
65691;SDS011;52411;52.716;6.696;2022-12-26T04:54:21;48.67;;;18.40;;
65691;SDS011;52411;52.716;6.696;2022-12-26T04:56:47;41.35;;;16.23;;
65691;SDS011;52411;52.716;6.696;2022-12-26T04:59:13;43.38;;;16.67;;
65691;SDS011;52411;52.716;6.696;2022-12-26T05:01:40;44.13;;;17.50;;
65691;SDS011;52411;52.716;6.696;2022-12-26T05:04:24;46.92;;;18.65;;
65691;SDS011;52411;52.716;6.696;2022-12-26T05:07:17;45.75;;;17.58;;
65691;SDS011;52411;52.716;6.696;2022-12-26T05:10:04;44.72;;;16.90;;
65691;SDS011;52411;52.716;6.696;2022-12-26T05:12:41;45.55;;;18.25;;
65691;SDS011;52411;52.716;6.696;2022-12-26T05:15:07;44.40;;;18.15;;
65691;SDS011;52411;52.716;6.696;2022-12-26T05:17:33;42.78;;;17.52;;
65691;SDS011;52411;52.716;6.696;2022-12-26T05:20:17;47.38;;;19.38;;
65691;SDS011;52411;52.716;6.696;2022-12-26T05:22:54;44.92;;;18.85;;
65691;SDS011;52411;52.716;6.696;2022-12-26T05:25:40;38.47;;;16.63;;
65691;SDS011;52411;52.716;6.696;2022-12-26T05:28:25;40.90;;;18.73;;
65691;SDS011;52411;52.716;6.696;2022-12-26T05:31:07;42.00;;;18.50;;
65691;SDS011;52411;52.716;6.696;2022-12-26T05:33:40;41.42;;;18.80;;
65691;SDS011;52411;52.716;6.696;2022-12-26T05:36:28;38.13;;;18.23;;
65691;SDS011;52411;52.716;6.696;2022-12-26T05:38:57;40.60;;;18.85;;
65691;SDS011;52411;52.716;6.696;2022-12-26T05:41:23;41.80;;;21.00;;
65691;SDS011;52411;52.716;6.696;2022-12-26T05:43:49;36.33;;;17.85;;
65691;SDS011;52411;52.716;6.696;2022-12-26T05:46:14;37.05;;;18.15;;
65691;SDS011;52411;52.716;6.696;2022-12-26T05:48:40;34.50;;;15.27;;
65691;SDS011;52411;52.716;6.696;2022-12-26T05:51:06;41.05;;;19.20;;
65691;SDS011;52411;52.716;6.696;2022-12-26T05:53:31;39.05;;;19.15;;
65691;SDS011;52411;52.716;6.696;2022-12-26T05:56:04;39.22;;;20.02;;
65691;SDS011;52411;52.716;6.696;2022-12-26T05:58:30;37.50;;;18.40;;
65691;SDS011;52411;52.716;6.696;2022-12-26T06:01:07;39.17;;;18.35;;
65691;SDS011;52411;52.716;6.696;2022-12-26T06:03:37;34.58;;;18.60;;
65691;SDS011;52411;52.716;6.696;2022-12-26T06:06:04;37.67;;;18.27;;
65691;SDS011;52411;52.716;6.696;2022-12-26T06:08:30;37.13;;;17.88;;
65691;SDS011;52411;52.716;6.696;2022-12-26T06:10:56;36.92;;;18.70;;
65691;SDS011;52411;52.716;6.696;2022-12-26T06:13:21;36.03;;;17.33;;
65691;SDS011;52411;52.716;6.696;2022-12-26T06:15:47;40.75;;;21.48;;
65691;SDS011;52411;52.716;6.696;2022-12-26T06:18:13;34.97;;;16.83;;
65691;SDS011;52411;52.716;6.696;2022-12-26T06:20:38;34.97;;;16.92;;
65691;SDS011;52411;52.716;6.696;2022-12-26T06:23:04;34.22;;;16.98;;
65691;SDS011;52411;52.716;6.696;2022-12-26T06:25:30;31.67;;;15.95;;
65691;SDS011;52411;52.716;6.696;2022-12-26T06:27:56;33.67;;;16.48;;
65691;SDS011;52411;52.716;6.696;2022-12-26T06:30:22;33.22;;;16.35;;
65691;SDS011;52411;52.716;6.696;2022-12-26T06:32:50;33.45;;;16.27;;
65691;SDS011;52411;52.716;6.696;2022-12-26T06:35:16;33.85;;;16.48;;
65691;SDS011;52411;52.716;6.696;2022-12-26T06:37:41;32.63;;;17.30;;
65691;SDS011;52411;52.716;6.696;2022-12-26T06:40:07;31.38;;;15.05;;
65691;SDS011;52411;52.716;6.696;2022-12-26T06:42:33;35.78;;;17.05;;
65691;SDS011;52411;52.716;6.696;2022-12-26T06:44:59;35.28;;;17.42;;
65691;SDS011;52411;52.716;6.696;2022-12-26T06:47:24;34.03;;;18.02;;
65691;SDS011;52411;52.716;6.696;2022-12-26T06:49:53;35.17;;;17.63;;
65691;SDS011;52411;52.716;6.696;2022-12-26T06:52:18;35.15;;;18.60;;
65691;SDS011;52411;52.716;6.696;2022-12-26T06:54:44;34.05;;;18.48;;
65691;SDS011;52411;52.716;6.696;2022-12-26T06:57:10;31.65;;;16.65;;
65691;SDS011;52411;52.716;6.696;2022-12-26T06:59:35;34.38;;;17.15;;
65691;SDS011;52411;52.716;6.696;2022-12-26T07:02:01;36.17;;;18.67;;
65691;SDS011;52411;52.716;6.696;2022-12-26T07:04:27;33.17;;;18.38;;
65691;SDS011;52411;52.716;6.696;2022-12-26T07:06:52;36.22;;;17.65;;
65691;SDS011;52411;52.716;6.696;2022-12-26T07:09:18;37.42;;;19.25;;
65691;SDS011;52411;52.716;6.696;2022-12-26T07:11:47;36.33;;;18.00;;
65691;SDS011;52411;52.716;6.696;2022-12-26T07:14:14;32.28;;;16.50;;
65691;SDS011;52411;52.716;6.696;2022-12-26T07:16:42;37.80;;;19.55;;
65691;SDS011;52411;52.716;6.696;2022-12-26T07:19:09;40.13;;;18.52;;
65691;SDS011;52411;52.716;6.696;2022-12-26T07:21:35;37.92;;;19.05;;
65691;SDS011;52411;52.716;6.696;2022-12-26T07:24:02;40.88;;;17.85;;
65691;SDS011;52411;52.716;6.696;2022-12-26T07:26:27;38.75;;;18.27;;
65691;SDS011;52411;52.716;6.696;2022-12-26T07:28:54;41.05;;;19.67;;
65691;SDS011;52411;52.716;6.696;2022-12-26T07:31:21;42.80;;;19.27;;
65691;SDS011;52411;52.716;6.696;2022-12-26T07:33:48;41.22;;;20.30;;
65691;SDS011;52411;52.716;6.696;2022-12-26T07:36:17;40.38;;;21.27;;
65691;SDS011;52411;52.716;6.696;2022-12-26T07:38:43;39.78;;;21.10;;
65691;SDS011;52411;52.716;6.696;2022-12-26T07:41:09;41.35;;;20.63;;
65691;SDS011;52411;52.716;6.696;2022-12-26T07:43:54;39.97;;;19.35;;
65691;SDS011;52411;52.716;6.696;2022-12-26T07:46:20;42.10;;;22.17;;
65691;SDS011;52411;52.716;6.696;2022-12-26T07:48:45;40.75;;;21.60;;
65691;SDS011;52411;52.716;6.696;2022-12-26T07:51:11;37.08;;;20.23;;
65691;SDS011;52411;52.716;6.696;2022-12-26T07:53:37;38.67;;;17.55;;
65691;SDS011;52411;52.716;6.696;2022-12-26T07:56:03;44.72;;;20.38;;
65691;SDS011;52411;52.716;6.696;2022-12-26T07:58:29;34.55;;;18.25;;
65691;SDS011;52411;52.716;6.696;2022-12-26T08:00:54;33.05;;;17.92;;
65691;SDS011;52411;52.716;6.696;2022-12-26T08:03:20;35.97;;;19.17;;
65691;SDS011;52411;52.716;6.696;2022-12-26T08:05:49;29.83;;;16.85;;
65691;SDS011;52411;52.716;6.696;2022-12-26T08:08:15;31.95;;;16.95;;
65691;SDS011;52411;52.716;6.696;2022-12-26T08:10:41;31.48;;;17.02;;
65691;SDS011;52411;52.716;6.696;2022-12-26T08:13:07;29.40;;;15.93;;
65691;SDS011;52411;52.716;6.696;2022-12-26T08:15:33;26.73;;;14.75;;
65691;SDS011;52411;52.716;6.696;2022-12-26T08:18:01;26.98;;;15.43;;
65691;SDS011;52411;52.716;6.696;2022-12-26T08:20:27;25.25;;;14.13;;
65691;SDS011;52411;52.716;6.696;2022-12-26T08:22:52;25.50;;;14.45;;
65691;SDS011;52411;52.716;6.696;2022-12-26T08:25:18;22.42;;;13.93;;
65691;SDS011;52411;52.716;6.696;2022-12-26T08:27:43;24.23;;;14.55;;
65691;SDS011;52411;52.716;6.696;2022-12-26T08:30:09;23.60;;;14.15;;
65691;SDS011;52411;52.716;6.696;2022-12-26T08:32:35;22.20;;;12.43;;
65691;SDS011;52411;52.716;6.696;2022-12-26T08:35:01;22.73;;;14.30;;
65691;SDS011;52411;52.716;6.696;2022-12-26T08:37:27;20.95;;;12.73;;
65691;SDS011;52411;52.716;6.696;2022-12-26T08:39:53;19.65;;;12.55;;
65691;SDS011;52411;52.716;6.696;2022-12-26T08:42:19;21.63;;;12.68;;
65691;SDS011;52411;52.716;6.696;2022-12-26T08:44:45;18.25;;;10.35;;
65691;SDS011;52411;52.716;6.696;2022-12-26T08:47:11;17.40;;;11.20;;
65691;SDS011;52411;52.716;6.696;2022-12-26T08:49:37;17.10;;;10.23;;
65691;SDS011;52411;52.716;6.696;2022-12-26T08:52:03;15.95;;;10.02;;
65691;SDS011;52411;52.716;6.696;2022-12-26T08:54:28;20.05;;;10.95;;
65691;SDS011;52411;52.716;6.696;2022-12-26T08:56:54;18.42;;;10.43;;
65691;SDS011;52411;52.716;6.696;2022-12-26T08:59:20;14.30;;;9.18;;
65691;SDS011;52411;52.716;6.696;2022-12-26T09:01:46;13.98;;;8.98;;
65691;SDS011;52411;52.716;6.696;2022-12-26T09:04:11;17.92;;;8.45;;
65691;SDS011;52411;52.716;6.696;2022-12-26T09:06:37;14.68;;;7.65;;
65691;SDS011;52411;52.716;6.696;2022-12-26T09:09:04;13.15;;;8.10;;
65691;SDS011;52411;52.716;6.696;2022-12-26T09:11:30;14.00;;;7.90;;
65691;SDS011;52411;52.716;6.696;2022-12-26T09:13:58;13.35;;;8.30;;
65691;SDS011;52411;52.716;6.696;2022-12-26T09:16:26;13.70;;;7.63;;
65691;SDS011;52411;52.716;6.696;2022-12-26T09:18:56;11.57;;;6.97;;
65691;SDS011;52411;52.716;6.696;2022-12-26T09:21:26;15.55;;;7.88;;
65691;SDS011;52411;52.716;6.696;2022-12-26T09:24:00;11.88;;;7.03;;
65691;SDS011;52411;52.716;6.696;2022-12-26T09:26:27;13.25;;;7.35;;
65691;SDS011;52411;52.716;6.696;2022-12-26T09:28:53;14.27;;;7.18;;
65691;SDS011;52411;52.716;6.696;2022-12-26T09:31:20;10.02;;;6.40;;
65691;SDS011;52411;52.716;6.696;2022-12-26T09:33:48;14.75;;;6.82;;
65691;SDS011;52411;52.716;6.696;2022-12-26T09:36:16;15.07;;;7.22;;
65691;SDS011;52411;52.716;6.696;2022-12-26T09:38:44;10.20;;;6.47;;
65691;SDS011;52411;52.716;6.696;2022-12-26T09:49:20;12.27;;;6.05;;
65691;SDS011;52411;52.716;6.696;2022-12-26T09:51:51;10.13;;;5.90;;
65691;SDS011;52411;52.716;6.696;2022-12-26T09:54:29;10.13;;;5.63;;
65691;SDS011;52411;52.716;6.696;2022-12-26T09:56:58;10.68;;;5.25;;
65691;SDS011;52411;52.716;6.696;2022-12-26T09:59:25;10.95;;;5.30;;
65691;SDS011;52411;52.716;6.696;2022-12-26T10:01:51;9.75;;;5.30;;
65691;SDS011;52411;52.716;6.696;2022-12-26T10:04:24;10.00;;;5.38;;
65691;SDS011;52411;52.716;6.696;2022-12-26T10:06:58;9.77;;;4.75;;
65691;SDS011;52411;52.716;6.696;2022-12-26T10:09:51;8.85;;;5.03;;
65691;SDS011;52411;52.716;6.696;2022-12-26T10:12:53;9.77;;;4.78;;
65691;SDS011;52411;52.716;6.696;2022-12-26T10:15:29;8.85;;;4.50;;
65691;SDS011;52411;52.716;6.696;2022-12-26T10:21:04;6.85;;;4.65;;
65691;SDS011;52411;52.716;6.696;2022-12-26T10:23:53;9.80;;;4.00;;
65691;SDS011;52411;52.716;6.696;2022-12-26T10:26:36;11.10;;;3.50;;
65691;SDS011;52411;52.716;6.696;2022-12-26T10:36:46;9.68;;;1.83;;
65691;SDS011;52411;52.716;6.696;2022-12-26T10:39:25;10.23;;;2.50;;
65691;SDS011;52411;52.716;6.696;2022-12-26T10:42:29;10.43;;;2.50;;
65691;SDS011;52411;52.716;6.696;2022-12-26T10:45:03;6.45;;;1.63;;
65691;SDS011;52411;52.716;6.696;2022-12-26T10:47:40;9.35;;;1.80;;
65691;SDS011;52411;52.716;6.696;2022-12-26T10:50:14;9.63;;;1.98;;
65691;SDS011;52411;52.716;6.696;2022-12-26T10:53:03;15.15;;;2.05;;
65691;SDS011;52411;52.716;6.696;2022-12-26T10:55:31;8.02;;;2.25;;
65691;SDS011;52411;52.716;6.696;2022-12-26T10:58:32;12.70;;;2.22;;
65691;SDS011;52411;52.716;6.696;2022-12-26T11:01:27;9.10;;;2.13;;
65691;SDS011;52411;52.716;6.696;2022-12-26T11:03:53;8.15;;;1.60;;
65691;SDS011;52411;52.716;6.696;2022-12-26T11:06:21;6.05;;;1.58;;
65691;SDS011;52411;52.716;6.696;2022-12-26T11:08:49;10.35;;;2.25;;
65691;SDS011;52411;52.716;6.696;2022-12-26T11:11:22;11.48;;;2.28;;
65691;SDS011;52411;52.716;6.696;2022-12-26T11:14:25;6.90;;;1.77;;
65691;SDS011;52411;52.716;6.696;2022-12-26T11:16:58;9.57;;;1.55;;
65691;SDS011;52411;52.716;6.696;2022-12-26T11:19:31;13.73;;;2.05;;
65691;SDS011;52411;52.716;6.696;2022-12-26T11:24:52;7.70;;;1.75;;
65691;SDS011;52411;52.716;6.696;2022-12-26T11:27:47;5.95;;;1.30;;
65691;SDS011;52411;52.716;6.696;2022-12-26T11:35:26;9.57;;;1.40;;
65691;SDS011;52411;52.716;6.696;2022-12-26T11:37:59;6.72;;;1.50;;
65691;SDS011;52411;52.716;6.696;2022-12-26T11:40:46;4.72;;;1.27;;
65691;SDS011;52411;52.716;6.696;2022-12-26T11:43:34;8.30;;;1.50;;
65691;SDS011;52411;52.716;6.696;2022-12-26T11:46:00;7.25;;;1.63;;
65691;SDS011;52411;52.716;6.696;2022-12-26T11:48:26;6.00;;;1.20;;
65691;SDS011;52411;52.716;6.696;2022-12-26T11:50:52;5.57;;;0.93;;
65691;SDS011;52411;52.716;6.696;2022-12-26T11:53:19;8.20;;;1.55;;
65691;SDS011;52411;52.716;6.696;2022-12-26T11:56:00;7.28;;;1.33;;
65691;SDS011;52411;52.716;6.696;2022-12-26T11:58:28;7.70;;;1.58;;
65691;SDS011;52411;52.716;6.696;2022-12-26T12:06:05;15.50;;;1.90;;
65691;SDS011;52411;52.716;6.696;2022-12-26T12:17:00;11.20;;;1.58;;
65691;SDS011;52411;52.716;6.696;2022-12-26T12:19:37;11.23;;;1.50;;
65691;SDS011;52411;52.716;6.696;2022-12-26T12:30:14;10.40;;;1.40;;
65691;SDS011;52411;52.716;6.696;2022-12-26T12:38:24;9.80;;;1.90;;
65691;SDS011;52411;52.716;6.696;2022-12-26T12:41:09;11.25;;;2.05;;
65691;SDS011;52411;52.716;6.696;2022-12-26T12:43:52;9.85;;;2.50;;
65691;SDS011;52411;52.716;6.696;2022-12-26T12:57:49;12.40;;;2.03;;
65691;SDS011;52411;52.716;6.696;2022-12-26T13:00:21;9.52;;;1.80;;
65691;SDS011;52411;52.716;6.696;2022-12-26T13:08:47;9.90;;;2.35;;
65691;SDS011;52411;52.716;6.696;2022-12-26T13:11:24;11.43;;;1.73;;
65691;SDS011;52411;52.716;6.696;2022-12-26T13:16:37;12.45;;;2.65;;
65691;SDS011;52411;52.716;6.696;2022-12-26T13:21:37;10.43;;;1.85;;
65691;SDS011;52411;52.716;6.696;2022-12-26T13:24:12;9.57;;;2.00;;
65691;SDS011;52411;52.716;6.696;2022-12-26T13:29:34;15.77;;;3.47;;
65691;SDS011;52411;52.716;6.696;2022-12-26T13:34:53;20.58;;;3.75;;
65691;SDS011;52411;52.716;6.696;2022-12-26T13:40:02;13.32;;;3.88;;
65691;SDS011;52411;52.716;6.696;2022-12-26T13:43:08;15.43;;;4.18;;
65691;SDS011;52411;52.716;6.696;2022-12-26T13:46:01;15.07;;;3.10;;
65691;SDS011;52411;52.716;6.696;2022-12-26T13:50:59;15.10;;;3.53;;
65691;SDS011;52411;52.716;6.696;2022-12-26T13:55:57;16.98;;;2.83;;
65691;SDS011;52411;52.716;6.696;2022-12-26T13:58:29;11.90;;;2.72;;
65691;SDS011;52411;52.716;6.696;2022-12-26T14:03:51;14.23;;;2.65;;
65691;SDS011;52411;52.716;6.696;2022-12-26T14:09:13;14.40;;;3.17;;
65691;SDS011;52411;52.716;6.696;2022-12-26T14:12:12;11.15;;;2.20;;
65691;SDS011;52411;52.716;6.696;2022-12-26T14:20:13;13.20;;;2.45;;
65691;SDS011;52411;52.716;6.696;2022-12-26T14:34:11;13.95;;;2.30;;
65691;SDS011;52411;52.716;6.696;2022-12-26T14:37:11;11.75;;;2.08;;
65691;SDS011;52411;52.716;6.696;2022-12-26T14:42:29;18.08;;;2.35;;
65691;SDS011;52411;52.716;6.696;2022-12-26T14:47:46;11.23;;;1.88;;
65691;SDS011;52411;52.716;6.696;2022-12-26T14:53:16;9.52;;;1.98;;
65691;SDS011;52411;52.716;6.696;2022-12-26T15:17:36;11.65;;;2.17;;
65691;SDS011;52411;52.716;6.696;2022-12-26T15:50:06;13.63;;;1.83;;
65691;SDS011;52411;52.716;6.696;2022-12-26T15:52:59;14.30;;;2.30;;
65691;SDS011;52411;52.716;6.696;2022-12-26T15:55:32;9.70;;;1.75;;
65691;SDS011;52411;52.716;6.696;2022-12-26T16:00:59;9.93;;;1.83;;
65691;SDS011;52411;52.716;6.696;2022-12-26T16:03:42;12.27;;;2.03;;
65691;SDS011;52411;52.716;6.696;2022-12-26T16:14:08;16.40;;;2.92;;
65691;SDS011;52411;52.716;6.696;2022-12-26T16:16:47;11.95;;;2.05;;
65691;SDS011;52411;52.716;6.696;2022-12-26T16:19:14;15.38;;;2.60;;
65691;SDS011;52411;52.716;6.696;2022-12-26T16:21:41;15.52;;;2.80;;
65691;SDS011;52411;52.716;6.696;2022-12-26T16:24:29;11.82;;;2.95;;
65691;SDS011;52411;52.716;6.696;2022-12-26T16:26:58;11.88;;;2.17;;
65691;SDS011;52411;52.716;6.696;2022-12-26T16:29:26;14.00;;;2.90;;
65691;SDS011;52411;52.716;6.696;2022-12-26T16:32:00;6.93;;;2.35;;
65691;SDS011;52411;52.716;6.696;2022-12-26T16:34:27;10.82;;;2.38;;
65691;SDS011;52411;52.716;6.696;2022-12-26T16:36:56;12.13;;;2.80;;
65691;SDS011;52411;52.716;6.696;2022-12-26T16:39:22;11.90;;;3.25;;
65691;SDS011;52411;52.716;6.696;2022-12-26T16:42:08;12.15;;;2.78;;
65691;SDS011;52411;52.716;6.696;2022-12-26T16:44:56;14.02;;;2.67;;
65691;SDS011;52411;52.716;6.696;2022-12-26T16:47:23;13.85;;;2.75;;
65691;SDS011;52411;52.716;6.696;2022-12-26T16:49:50;12.80;;;2.60;;
65691;SDS011;52411;52.716;6.696;2022-12-26T16:52:32;10.90;;;2.35;;
65691;SDS011;52411;52.716;6.696;2022-12-26T16:55:45;11.18;;;2.13;;
65691;SDS011;52411;52.716;6.696;2022-12-26T16:57:57;14.20;;;2.58;;
65691;SDS011;52411;52.716;6.696;2022-12-26T17:00:25;7.97;;;2.35;;
65691;SDS011;52411;52.716;6.696;2022-12-26T17:02:52;12.15;;;3.22;;
65691;SDS011;52411;52.716;6.696;2022-12-26T17:05:21;11.52;;;2.20;;
65691;SDS011;52411;52.716;6.696;2022-12-26T17:07:56;11.98;;;2.60;;
65691;SDS011;52411;52.716;6.696;2022-12-26T17:10:25;13.15;;;2.85;;
65691;SDS011;52411;52.716;6.696;2022-12-26T17:12:54;11.80;;;2.10;;
65691;SDS011;52411;52.716;6.696;2022-12-26T17:15:23;12.25;;;2.20;;
65691;SDS011;52411;52.716;6.696;2022-12-26T17:17:52;8.45;;;2.50;;
65691;SDS011;52411;52.716;6.696;2022-12-26T17:22:47;13.10;;;2.20;;
65691;SDS011;52411;52.716;6.696;2022-12-26T17:25:18;7.90;;;2.45;;
65691;SDS011;52411;52.716;6.696;2022-12-26T17:28:20;11.82;;;2.25;;
65691;SDS011;52411;52.716;6.696;2022-12-26T17:30:42;12.73;;;2.10;;
65691;SDS011;52411;52.716;6.696;2022-12-26T17:35:36;11.38;;;2.45;;
65691;SDS011;52411;52.716;6.696;2022-12-26T17:38:05;10.93;;;2.50;;
65691;SDS011;52411;52.716;6.696;2022-12-26T17:40:38;10.65;;;2.20;;
65691;SDS011;52411;52.716;6.696;2022-12-26T17:45:40;8.98;;;2.22;;
65691;SDS011;52411;52.716;6.696;2022-12-26T17:48:08;12.43;;;2.80;;
65691;SDS011;52411;52.716;6.696;2022-12-26T17:50:36;9.77;;;2.38;;
65691;SDS011;52411;52.716;6.696;2022-12-26T17:53:16;10.98;;;2.42;;
65691;SDS011;52411;52.716;6.696;2022-12-26T17:55:48;9.00;;;2.35;;
65691;SDS011;52411;52.716;6.696;2022-12-26T17:58:15;12.60;;;3.05;;
65691;SDS011;52411;52.716;6.696;2022-12-26T18:00:41;13.20;;;3.60;;
65691;SDS011;52411;52.716;6.696;2022-12-26T18:03:07;14.07;;;2.95;;
65691;SDS011;52411;52.716;6.696;2022-12-26T18:05:33;11.20;;;3.45;;
65691;SDS011;52411;52.716;6.696;2022-12-26T18:08:00;10.20;;;3.63;;
65691;SDS011;52411;52.716;6.696;2022-12-26T18:10:28;12.70;;;3.70;;
65691;SDS011;52411;52.716;6.696;2022-12-26T18:12:55;16.02;;;5.25;;
65691;SDS011;52411;52.716;6.696;2022-12-26T18:15:21;15.60;;;5.43;;
65691;SDS011;52411;52.716;6.696;2022-12-26T18:17:49;15.60;;;5.30;;
65691;SDS011;52411;52.716;6.696;2022-12-26T18:20:22;18.45;;;5.93;;
65691;SDS011;52411;52.716;6.696;2022-12-26T18:22:50;13.00;;;5.97;;
65691;SDS011;52411;52.716;6.696;2022-12-26T18:25:17;18.55;;;6.53;;
65691;SDS011;52411;52.716;6.696;2022-12-26T18:27:45;16.27;;;6.70;;
65691;SDS011;52411;52.716;6.696;2022-12-26T18:30:17;18.80;;;7.00;;
65691;SDS011;52411;52.716;6.696;2022-12-26T18:32:45;23.80;;;6.82;;
65691;SDS011;52411;52.716;6.696;2022-12-26T18:35:12;16.73;;;6.07;;
65691;SDS011;52411;52.716;6.696;2022-12-26T18:37:38;15.88;;;5.82;;
65691;SDS011;52411;52.716;6.696;2022-12-26T18:40:10;12.40;;;5.38;;
65691;SDS011;52411;52.716;6.696;2022-12-26T18:42:45;16.70;;;5.15;;
65691;SDS011;52411;52.716;6.696;2022-12-26T18:45:10;20.38;;;5.63;;
65691;SDS011;52411;52.716;6.696;2022-12-26T18:47:36;16.05;;;4.07;;
65691;SDS011;52411;52.716;6.696;2022-12-26T18:50:01;10.32;;;3.88;;
65691;SDS011;52411;52.716;6.696;2022-12-26T18:52:33;19.75;;;3.67;;
65691;SDS011;52411;52.716;6.696;2022-12-26T18:54:58;14.73;;;3.92;;